sensor_id;sensor_type;location;lat;lon;timestamp;pressure;altitude;pressure_sealevel;temperature;humidity
7662;BME280;30314;48.184;11.510;2023-05-23T00:01:58;95634.91;;;16.14;100.00
7662;BME280;30314;48.184;11.510;2023-05-23T00:04:25;95616.69;;;16.16;100.00
7662;BME280;30314;48.184;11.510;2023-05-23T00:06:54;95615.47;;;16.13;100.00
7662;BME280;30314;48.184;11.510;2023-05-23T00:09:22;95619.69;;;16.14;100.00
7662;BME280;30314;48.184;11.510;2023-05-23T00:11:48;95609.56;;;16.08;100.00
7662;BME280;30314;48.184;11.510;2023-05-23T00:14:15;95629.13;;;16.12;100.00
7662;BME280;30314;48.184;11.510;2023-05-23T00:16:43;95623.91;;;16.15;100.00
7662;BME280;30314;48.184;11.510;2023-05-23T00:19:11;95625.13;;;16.18;100.00
7662;BME280;30314;48.184;11.510;2023-05-23T00:21:45;95628.91;;;16.17;100.00
7662;BME280;30314;48.184;11.510;2023-05-23T00:24:15;95625.13;;;16.18;100.00
7662;BME280;30314;48.184;11.510;2023-05-23T00:26:44;95626.81;;;16.23;100.00
7662;BME280;30314;48.184;11.510;2023-05-23T00:29:11;95619.94;;;16.22;100.00
7662;BME280;30314;48.184;11.510;2023-05-23T00:31:44;95621.38;;;16.19;100.00
7662;BME280;30314;48.184;11.510;2023-05-23T00:34:16;95621.06;;;16.20;100.00
7662;BME280;30314;48.184;11.510;2023-05-23T00:36:43;95619.16;;;16.21;100.00
7662;BME280;30314;48.184;11.510;2023-05-23T00:39:13;95628.91;;;16.17;100.00
7662;BME280;30314;48.184;11.510;2023-05-23T00:41:47;95621.81;;;16.21;100.00
7662;BME280;30314;48.184;11.510;2023-05-23T00:44:17;95623.50;;;16.26;100.00
7662;BME280;30314;48.184;11.510;2023-05-23T00:46:49;95614.41;;;16.27;100.00
7662;BME280;30314;48.184;11.510;2023-05-23T00:49:16;95622.66;;;16.34;100.00
7662;BME280;30314;48.184;11.510;2023-05-23T00:51:45;95627.09;;;16.42;100.00
7662;BME280;30314;48.184;11.510;2023-05-23T00:54:17;95619.84;;;16.30;100.00
7662;BME280;30314;48.184;11.510;2023-05-23T00:56:44;95626.56;;;16.37;100.00
7662;BME280;30314;48.184;11.510;2023-05-23T00:59:12;95627.31;;;16.37;100.00
7662;BME280;30314;48.184;11.510;2023-05-23T01:01:39;95619.00;;;16.39;100.00
7662;BME280;30314;48.184;11.510;2023-05-23T01:04:06;95626.44;;;16.33;100.00
7662;BME280;30314;48.184;11.510;2023-05-23T01:06:33;95623.63;;;16.29;100.00
7662;BME280;30314;48.184;11.510;2023-05-23T01:08:59;95629.19;;;16.24;100.00
7662;BME280;30314;48.184;11.510;2023-05-23T01:11:42;95624.63;;;16.25;100.00
7662;BME280;30314;48.184;11.510;2023-05-23T01:14:19;95629.63;;;16.26;100.00
7662;BME280;30314;48.184;11.510;2023-05-23T01:16:52;95624.28;;;16.26;100.00
7662;BME280;30314;48.184;11.510;2023-05-23T01:21:52;95638.06;;;16.28;100.00
7662;BME280;30314;48.184;11.510;2023-05-23T01:27:08;95632.72;;;16.28;100.00
7662;BME280;30314;48.184;11.510;2023-05-23T01:29:44;95636.28;;;16.32;100.00
7662;BME280;30314;48.184;11.510;2023-05-23T01:32:14;95636.09;;;16.38;100.00
7662;BME280;30314;48.184;11.510;2023-05-23T01:34:41;95638.28;;;16.35;100.00
7662;BME280;30314;48.184;11.510;2023-05-23T01:37:09;95635.19;;;16.33;100.00
7662;BME280;30314;48.184;11.510;2023-05-23T01:39:37;95640.06;;;16.31;100.00
7662;BME280;30314;48.184;11.510;2023-05-23T01:42:04;95646.28;;;16.23;100.00
7662;BME280;30314;48.184;11.510;2023-05-23T01:44:33;95639.84;;;16.24;100.00
7662;BME280;30314;48.184;11.510;2023-05-23T01:47:02;95640.94;;;16.23;100.00
7662;BME280;30314;48.184;11.510;2023-05-23T01:49:30;95649.56;;;16.20;100.00
7662;BME280;30314;48.184;11.510;2023-05-23T01:51:58;95645.75;;;16.09;100.00
7662;BME280;30314;48.184;11.510;2023-05-23T01:54:28;95659.31;;;16.16;100.00
7662;BME280;30314;48.184;11.510;2023-05-23T01:56:58;95662.19;;;16.11;100.00
7662;BME280;30314;48.184;11.510;2023-05-23T01:59:26;95664.88;;;16.11;100.00
7662;BME280;30314;48.184;11.510;2023-05-23T02:01:54;95662.81;;;16.08;100.00
7662;BME280;30314;48.184;11.510;2023-05-23T02:04:20;95662.81;;;16.08;100.00
7662;BME280;30314;48.184;11.510;2023-05-23T02:06:47;95664.38;;;16.09;100.00
7662;BME280;30314;48.184;11.510;2023-05-23T02:09:13;95670.72;;;16.04;100.00
7662;BME280;30314;48.184;11.510;2023-05-23T02:11:40;95667.13;;;16.00;100.00
7662;BME280;30314;48.184;11.510;2023-05-23T02:14:08;95654.78;;;15.95;100.00
7662;BME280;30314;48.184;11.510;2023-05-23T02:16:35;95668.06;;;16.04;100.00
7662;BME280;30314;48.184;11.510;2023-05-23T02:19:02;95666.50;;;16.03;100.00
7662;BME280;30314;48.184;11.510;2023-05-23T02:21:29;95664.28;;;16.05;100.00
7662;BME280;30314;48.184;11.510;2023-05-23T02:24:01;95666.81;;;16.01;100.00
7662;BME280;30314;48.184;11.510;2023-05-23T02:26:28;95671.22;;;15.97;100.00
7662;BME280;30314;48.184;11.510;2023-05-23T02:28:55;95671.84;;;15.94;100.00
7662;BME280;30314;48.184;11.510;2023-05-23T02:31:23;95669.09;;;15.90;100.00
7662;BME280;30314;48.184;11.510;2023-05-23T02:33:49;95679.16;;;15.85;100.00
7662;BME280;30314;48.184;11.510;2023-05-23T02:36:16;95669.91;;;15.82;100.00
7662;BME280;30314;48.184;11.510;2023-05-23T02:38:43;95672.72;;;15.86;100.00
7662;BME280;30314;48.184;11.510;2023-05-23T02:41:10;95671.69;;;15.78;100.00
7662;BME280;30314;48.184;11.510;2023-05-23T02:43:36;95671.03;;;15.81;100.00
7662;BME280;30314;48.184;11.510;2023-05-23T02:46:04;95678.56;;;15.79;100.00
7662;BME280;30314;48.184;11.510;2023-05-23T02:48:31;95676.72;;;15.71;100.00
7662;BME280;30314;48.184;11.510;2023-05-23T02:50:58;95669.69;;;15.66;100.00
7662;BME280;30314;48.184;11.510;2023-05-23T02:53:24;95679.75;;;15.60;100.00
7662;BME280;30314;48.184;11.510;2023-05-23T02:55:52;95672.88;;;15.59;100.00
7662;BME280;30314;48.184;11.510;2023-05-23T02:58:18;95675.38;;;15.56;100.00
7662;BME280;30314;48.184;11.510;2023-05-23T03:00:46;95682.31;;;15.48;100.00
7662;BME280;30314;48.184;11.510;2023-05-23T03:03:12;95682.34;;;15.39;100.00
7662;BME280;30314;48.184;11.510;2023-05-23T03:05:39;95685.44;;;15.41;100.00
7662;BME280;30314;48.184;11.510;2023-05-23T03:08:06;95683.91;;;15.40;100.00
7662;BME280;30314;48.184;11.510;2023-05-23T03:10:33;95681.88;;;15.37;100.00
7662;BME280;30314;48.184;11.510;2023-05-23T03:12:59;95679.41;;;15.32;100.00
7662;BME280;30314;48.184;11.510;2023-05-23T03:15:28;95675.97;;;15.31;100.00
7662;BME280;30314;48.184;11.510;2023-05-23T03:17:56;95683.44;;;15.38;100.00
7662;BME280;30314;48.184;11.510;2023-05-23T03:20:22;95683.91;;;15.40;100.00
7662;BME280;30314;48.184;11.510;2023-05-23T03:22:49;95684.09;;;15.35;100.00
7662;BME280;30314;48.184;11.510;2023-05-23T03:25:16;95688.16;;;15.32;100.00
7662;BME280;30314;48.184;11.510;2023-05-23T03:27:43;95683.91;;;15.40;100.00
7662;BME280;30314;48.184;11.510;2023-05-23T03:30:10;95685.19;;;15.34;100.00
7662;BME280;30314;48.184;11.510;2023-05-23T03:32:37;95691.16;;;15.31;100.00
7662;BME280;30314;48.184;11.510;2023-05-23T03:35:05;95691.41;;;15.38;100.00
7662;BME280;30314;48.184;11.510;2023-05-23T03:37:31;95687.41;;;15.32;100.00
7662;BME280;30314;48.184;11.510;2023-05-23T03:39:58;95694.63;;;15.22;100.00
7662;BME280;30314;48.184;11.510;2023-05-23T03:42:27;95693.38;;;15.20;100.00
7662;BME280;30314;48.184;11.510;2023-05-23T03:44:53;95681.97;;;15.19;100.00
7662;BME280;30314;48.184;11.510;2023-05-23T03:47:21;95690.06;;;15.23;100.00
7662;BME280;30314;48.184;11.510;2023-05-23T03:49:49;95697.47;;;15.17;100.00
7662;BME280;30314;48.184;11.510;2023-05-23T03:52:16;95696.53;;;15.13;100.00
7662;BME280;30314;48.184;11.510;2023-05-23T03:54:44;95700.75;;;15.14;100.00
7662;BME280;30314;48.184;11.510;2023-05-23T03:57:11;95702.19;;;15.12;100.00
7662;BME280;30314;48.184;11.510;2023-05-23T03:59:38;95705.16;;;15.10;100.00
7662;BME280;30314;48.184;11.510;2023-05-23T04:02:08;95699.84;;;15.10;100.00
7662;BME280;30314;48.184;11.510;2023-05-23T04:04:35;95697.81;;;15.07;100.00
7662;BME280;30314;48.184;11.510;2023-05-23T04:07:03;95698.72;;;15.11;100.00
7662;BME280;30314;48.184;11.510;2023-05-23T04:09:31;95702.50;;;15.10;100.00
7662;BME280;30314;48.184;11.510;2023-05-23T04:11:58;95704.22;;;15.06;100.00
7662;BME280;30314;48.184;11.510;2023-05-23T04:14:26;95695.16;;;15.07;100.00
7662;BME280;30314;48.184;11.510;2023-05-23T04:16:55;95695.72;;;15.21;100.00
7662;BME280;30314;48.184;11.510;2023-05-23T04:19:21;95700.59;;;15.19;100.00
7662;BME280;30314;48.184;11.510;2023-05-23T04:21:50;95709.78;;;15.22;100.00
7662;BME280;30314;48.184;11.510;2023-05-23T04:24:17;95717.28;;;15.29;100.00
7662;BME280;30314;48.184;11.510;2023-05-23T04:26:43;95693.72;;;15.18;100.00
7662;BME280;30314;48.184;11.510;2023-05-23T04:29:11;95710.88;;;15.30;100.00
7662;BME280;30314;48.184;11.510;2023-05-23T04:31:38;95714.00;;;15.23;100.00
7662;BME280;30314;48.184;11.510;2023-05-23T04:34:05;95704.19;;;15.15;100.00
7662;BME280;30314;48.184;11.510;2023-05-23T04:36:37;95724.19;;;15.30;100.00
7662;BME280;30314;48.184;11.510;2023-05-23T04:39:04;95720.09;;;15.32;100.00
7662;BME280;30314;48.184;11.510;2023-05-23T04:41:36;95720.22;;;15.36;100.00
7662;BME280;30314;48.184;11.510;2023-05-23T04:44:12;95710.28;;;15.24;100.00
7662;BME280;30314;48.184;11.510;2023-05-23T04:47:18;95732.59;;;15.41;100.00
7662;BME280;30314;48.184;11.510;2023-05-23T04:50:02;95733.88;;;15.43;100.00
7662;BME280;30314;48.184;11.510;2023-05-23T04:52:30;95734.63;;;15.44;100.00
7662;BME280;30314;48.184;11.510;2023-05-23T04:54:59;95741.81;;;15.52;100.00
7662;BME280;30314;48.184;11.510;2023-05-23T04:57:27;95724.78;;;15.44;100.00
7662;BME280;30314;48.184;11.510;2023-05-23T04:59:54;95728.81;;;15.50;100.00
7662;BME280;30314;48.184;11.510;2023-05-23T05:02:22;95738.19;;;15.57;100.00
7662;BME280;30314;48.184;11.510;2023-05-23T05:04:49;95739.56;;;15.63;100.00
7662;BME280;30314;48.184;11.510;2023-05-23T05:07:16;95732.94;;;15.69;100.00
7662;BME280;30314;48.184;11.510;2023-05-23T05:09:43;95741.94;;;15.86;100.00
7662;BME280;30314;48.184;11.510;2023-05-23T05:12:11;95738.94;;;15.87;100.00
7662;BME280;30314;48.184;11.510;2023-05-23T05:14:38;95732.66;;;15.92;100.00
7662;BME280;30314;48.184;11.510;2023-05-23T05:17:05;95729.34;;;15.95;100.00
7662;BME280;30314;48.184;11.510;2023-05-23T05:19:40;95738.44;;;15.94;100.00
7662;BME280;30314;48.184;11.510;2023-05-23T05:22:07;95738.97;;;16.09;100.00
7662;BME280;30314;48.184;11.510;2023-05-23T05:24:37;95730.53;;;16.06;100.00
7662;BME280;30314;48.184;11.510;2023-05-23T05:27:05;95732.09;;;16.08;100.00
7662;BME280;30314;48.184;11.510;2023-05-23T05:29:33;95732.81;;;16.17;100.00
7662;BME280;30314;48.184;11.510;2023-05-23T05:32:00;95737.94;;;16.22;100.00
7662;BME280;30314;48.184;11.510;2023-05-23T05:34:28;95712.88;;;16.23;100.00
7662;BME280;30314;48.184;11.510;2023-05-23T05:36:55;95733.38;;;16.44;100.00
7662;BME280;30314;48.184;11.510;2023-05-23T05:39:24;95734.28;;;16.48;100.00
7662;BME280;30314;48.184;11.510;2023-05-23T05:41:52;95757.16;;;16.49;100.00
7662;BME280;30314;48.184;11.510;2023-05-23T05:44:18;95754.72;;;16.44;100.00
7662;BME280;30314;48.184;11.510;2023-05-23T05:46:45;95756.41;;;16.48;100.00
7662;BME280;30314;48.184;11.510;2023-05-23T05:49:12;95757.16;;;16.49;100.00
7662;BME280;30314;48.184;11.510;2023-05-23T05:51:40;95761.28;;;16.46;100.00
7662;BME280;30314;48.184;11.510;2023-05-23T05:54:06;95758.53;;;16.55;100.00
7662;BME280;30314;48.184;11.510;2023-05-23T05:56:33;95757.16;;;16.49;100.00
7662;BME280;30314;48.184;11.510;2023-05-23T05:59:00;95754.06;;;16.47;100.00
7662;BME280;30314;48.184;11.510;2023-05-23T06:01:26;95759.66;;;16.54;100.00
7662;BME280;30314;48.184;11.510;2023-05-23T06:03:53;95754.47;;;16.58;100.00
7662;BME280;30314;48.184;11.510;2023-05-23T06:06:20;95766.09;;;16.53;100.00
7662;BME280;30314;48.184;11.510;2023-05-23T06:08:47;95759.97;;;16.53;100.00
7662;BME280;30314;48.184;11.510;2023-05-23T06:11:15;95758.38;;;16.60;100.00
7662;BME280;30314;48.184;11.510;2023-05-23T06:13:42;95767.91;;;16.61;100.00
7662;BME280;30314;48.184;11.510;2023-05-23T06:16:08;95756.31;;;16.57;100.00
7662;BME280;30314;48.184;11.510;2023-05-23T06:18:35;95765.88;;;16.58;100.00
7662;BME280;30314;48.184;11.510;2023-05-23T06:21:02;95760.56;;;16.58;100.00
7662;BME280;30314;48.184;11.510;2023-05-23T06:23:29;95763.31;;;16.71;100.00
7662;BME280;30314;48.184;11.510;2023-05-23T06:25:57;95763.88;;;16.76;100.00
7662;BME280;30314;48.184;11.510;2023-05-23T06:28:24;95751.34;;;16.77;100.00
7662;BME280;30314;48.184;11.510;2023-05-23T06:30:51;95758.00;;;16.83;100.00
7662;BME280;30314;48.184;11.510;2023-05-23T06:33:17;95760.94;;;16.90;100.00
7662;BME280;30314;48.184;11.510;2023-05-23T06:35:44;95746.44;;;16.79;100.00
7662;BME280;30314;48.184;11.510;2023-05-23T06:38:10;95779.00;;;17.06;100.00
7662;BME280;30314;48.184;11.510;2023-05-23T06:40:38;95766.97;;;17.12;100.00
7662;BME280;30314;48.184;11.510;2023-05-23T06:43:05;95772.34;;;17.25;100.00
7662;BME280;30314;48.184;11.510;2023-05-23T06:45:45;95779.81;;;17.31;100.00
7662;BME280;30314;48.184;11.510;2023-05-23T06:48:12;95779.94;;;17.35;100.00
7662;BME280;30314;48.184;11.510;2023-05-23T06:50:39;95789.41;;;17.45;100.00
7662;BME280;30314;48.184;11.510;2023-05-23T06:53:08;95771.81;;;17.31;100.00
7662;BME280;30314;48.184;11.510;2023-05-23T06:55:35;95779.16;;;17.35;100.00
7662;BME280;30314;48.184;11.510;2023-05-23T06:58:03;95777.28;;;17.47;100.00
7662;BME280;30314;48.184;11.510;2023-05-23T07:00:31;95769.97;;;17.57;100.00
7662;BME280;30314;48.184;11.510;2023-05-23T07:03:08;95777.06;;;17.65;100.00
7662;BME280;30314;48.184;11.510;2023-05-23T07:05:34;95782.00;;;17.75;100.00
7662;BME280;30314;48.184;11.510;2023-05-23T07:08:07;95770.63;;;17.66;100.00
7662;BME280;30314;48.184;11.510;2023-05-23T07:10:36;95774.56;;;17.81;100.00
7662;BME280;30314;48.184;11.510;2023-05-23T07:13:16;95779.66;;;17.86;100.00
7662;BME280;30314;48.184;11.510;2023-05-23T07:15:42;95783.25;;;17.91;100.00
7662;BME280;30314;48.184;11.510;2023-05-23T07:18:12;95783.25;;;17.91;100.00
7662;BME280;30314;48.184;11.510;2023-05-23T07:20:39;95795.69;;;17.86;100.00
7662;BME280;30314;48.184;11.510;2023-05-23T07:23:15;95798.59;;;17.81;100.00
7662;BME280;30314;48.184;11.510;2023-05-23T07:25:43;95791.00;;;17.71;100.00
7662;BME280;30314;48.184;11.510;2023-05-23T07:28:27;95804.03;;;17.72;100.00
7662;BME280;30314;48.184;11.510;2023-05-23T07:30:54;95793.81;;;17.74;100.00
7662;BME280;30314;48.184;11.510;2023-05-23T07:33:23;95791.13;;;17.74;100.00
7662;BME280;30314;48.184;11.510;2023-05-23T07:35:52;95784.75;;;17.67;100.00
7662;BME280;30314;48.184;11.510;2023-05-23T07:38:19;95795.09;;;17.68;100.00
7662;BME280;30314;48.184;11.510;2023-05-23T07:40:46;95791.88;;;17.63;100.00
7662;BME280;30314;48.184;11.510;2023-05-23T07:43:28;95800.78;;;17.67;100.00
7662;BME280;30314;48.184;11.510;2023-05-23T07:45:54;95797.53;;;17.61;100.00
7662;BME280;30314;48.184;11.510;2023-05-23T07:48:21;95804.44;;;17.62;100.00
7662;BME280;30314;48.184;11.510;2023-05-23T07:50:48;95793.53;;;17.55;100.00
7662;BME280;30314;48.184;11.510;2023-05-23T07:53:15;95796.41;;;17.50;100.00
7662;BME280;30314;48.184;11.510;2023-05-23T07:55:41;95791.75;;;17.46;100.00
7662;BME280;30314;48.184;11.510;2023-05-23T07:58:09;95804.66;;;17.57;100.00
7662;BME280;30314;48.184;11.510;2023-05-23T08:00:35;95797.84;;;17.47;100.00
7662;BME280;30314;48.184;11.510;2023-05-23T08:03:10;95804.31;;;17.58;100.00
7662;BME280;30314;48.184;11.510;2023-05-23T08:05:47;95791.75;;;17.59;100.00
7662;BME280;30314;48.184;11.510;2023-05-23T08:08:14;95802.09;;;17.60;100.00
7662;BME280;30314;48.184;11.510;2023-05-23T08:10:40;95810.34;;;17.55;100.00
7662;BME280;30314;48.184;11.510;2023-05-23T08:13:14;95811.44;;;17.54;100.00
7662;BME280;30314;48.184;11.510;2023-05-23T08:15:58;95799.22;;;17.53;100.00
7662;BME280;30314;48.184;11.510;2023-05-23T08:18:28;95813.78;;;17.56;100.00
7662;BME280;30314;48.184;11.510;2023-05-23T08:20:56;95803.66;;;17.49;100.00
7662;BME280;30314;48.184;11.510;2023-05-23T08:23:23;95791.75;;;17.46;100.00
7662;BME280;30314;48.184;11.510;2023-05-23T08:25:50;95802.34;;;17.68;100.00
7662;BME280;30314;48.184;11.510;2023-05-23T08:28:17;95804.00;;;17.60;100.00
7662;BME280;30314;48.184;11.510;2023-05-23T08:30:50;95810.47;;;17.59;100.00
7662;BME280;30314;48.184;11.510;2023-05-23T08:33:17;95798.41;;;17.53;100.00
7662;BME280;30314;48.184;11.510;2023-05-23T08:35:46;95797.09;;;17.59;100.00
7662;BME280;30314;48.184;11.510;2023-05-23T08:38:14;95804.13;;;17.64;100.00
7662;BME280;30314;48.184;11.510;2023-05-23T08:40:55;95807.38;;;17.69;100.00
7662;BME280;30314;48.184;11.510;2023-05-23T08:43:27;95828.16;;;17.64;100.00
7662;BME280;30314;48.184;11.510;2023-05-23T08:45:54;95814.88;;;17.55;100.00
7662;BME280;30314;48.184;11.510;2023-05-23T08:48:22;95818.66;;;17.54;100.00
7662;BME280;30314;48.184;11.510;2023-05-23T08:50:51;95841.44;;;17.72;100.00
7662;BME280;30314;48.184;11.510;2023-05-23T08:53:21;95833.53;;;17.76;100.00
7662;BME280;30314;48.184;11.510;2023-05-23T08:55:59;95833.19;;;17.78;100.00
7662;BME280;30314;48.184;11.510;2023-05-23T08:58:37;95835.66;;;17.83;100.00
7662;BME280;30314;48.184;11.510;2023-05-23T09:01:09;95836.44;;;17.83;100.00
7662;BME280;30314;48.184;11.510;2023-05-23T09:03:37;95829.66;;;17.86;100.00
7662;BME280;30314;48.184;11.510;2023-05-23T09:06:24;95840.66;;;17.97;100.00
7662;BME280;30314;48.184;11.510;2023-05-23T09:08:52;95827.66;;;17.83;100.00
7662;BME280;30314;48.184;11.510;2023-05-23T09:11:20;95839.88;;;17.84;100.00
7662;BME280;30314;48.184;11.510;2023-05-23T09:13:48;95839.53;;;17.85;100.00
7662;BME280;30314;48.184;11.510;2023-05-23T09:16:17;95834.88;;;17.82;100.00
7662;BME280;30314;48.184;11.510;2023-05-23T09:18:48;95832.63;;;17.72;100.00
7662;BME280;30314;48.184;11.510;2023-05-23T09:21:18;95846.34;;;17.83;100.00
7662;BME280;30314;48.184;11.510;2023-05-23T09:23:53;95840.44;;;17.89;100.00
7662;BME280;30314;48.184;11.510;2023-05-23T09:26:21;95837.00;;;18.01;100.00
7662;BME280;30314;48.184;11.510;2023-05-23T09:28:47;95843.44;;;17.88;100.00
7662;BME280;30314;48.184;11.510;2023-05-23T09:31:14;95826.06;;;17.82;100.00
7662;BME280;30314;48.184;11.510;2023-05-23T09:33:45;95850.34;;;18.01;100.00
7662;BME280;30314;48.184;11.510;2023-05-23T09:36:17;95848.47;;;17.89;100.00
7662;BME280;30314;48.184;11.510;2023-05-23T09:38:45;95847.91;;;17.84;100.00
7662;BME280;30314;48.184;11.510;2023-05-23T09:41:13;95841.00;;;17.83;100.00
7662;BME280;30314;48.184;11.510;2023-05-23T09:43:49;95851.69;;;17.83;100.00
7662;BME280;30314;48.184;11.510;2023-05-23T09:46:15;95837.22;;;17.71;100.00
7662;BME280;30314;48.184;11.510;2023-05-23T09:48:49;95843.66;;;17.70;100.00
7662;BME280;30314;48.184;11.510;2023-05-23T09:51:19;95848.41;;;17.65;100.00
7662;BME280;30314;48.184;11.510;2023-05-23T09:53:47;95852.25;;;17.55;100.00
7662;BME280;30314;48.184;11.510;2023-05-23T09:56:15;95848.50;;;17.68;100.00
7662;BME280;30314;48.184;11.510;2023-05-23T09:58:46;95855.63;;;17.64;100.00
7662;BME280;30314;48.184;11.510;2023-05-23T10:01:14;95839.38;;;17.57;100.00
7662;BME280;30314;48.184;11.510;2023-05-23T10:03:48;95849.75;;;17.71;100.00
7662;BME280;30314;48.184;11.510;2023-05-23T10:06:33;95851.56;;;17.79;100.00
7662;BME280;30314;48.184;11.510;2023-05-23T10:09:04;95852.44;;;17.71;100.00
7662;BME280;30314;48.184;11.510;2023-05-23T10:14:06;95846.91;;;17.76;100.00
7662;BME280;30314;48.184;11.510;2023-05-23T10:16:54;95851.03;;;17.86;100.00
7662;BME280;30314;48.184;11.510;2023-05-23T10:19:46;95851.22;;;17.93;100.00
7662;BME280;30314;48.184;11.510;2023-05-23T10:22:14;95849.47;;;17.97;100.00
7662;BME280;30314;48.184;11.510;2023-05-23T10:24:43;95839.66;;;18.14;100.00
7662;BME280;30314;48.184;11.510;2023-05-23T10:27:10;95838.34;;;17.95;100.00
7662;BME280;30314;48.184;11.510;2023-05-23T10:29:37;95841.00;;;17.95;100.00
7662;BME280;30314;48.184;11.510;2023-05-23T10:32:05;95843.69;;;17.95;100.00
7662;BME280;30314;48.184;11.510;2023-05-23T10:37:56;95827.41;;;18.25;100.00
7662;BME280;30314;48.184;11.510;2023-05-23T10:40:36;95822.13;;;18.41;100.00
7662;BME280;30314;48.184;11.510;2023-05-23T10:45:44;95824.00;;;18.78;100.00
7662;BME280;30314;48.184;11.510;2023-05-23T10:48:20;95822.13;;;18.95;100.00
7662;BME280;30314;48.184;11.510;2023-05-23T10:51:07;95825.44;;;19.04;100.00
7662;BME280;30314;48.184;11.510;2023-05-23T10:53:36;95821.94;;;18.87;100.00
7662;BME280;30314;48.184;11.510;2023-05-23T10:56:05;95818.34;;;18.96;99.57
7662;BME280;30314;48.184;11.510;2023-05-23T10:58:38;95820.38;;;19.15;100.00
7662;BME280;30314;48.184;11.510;2023-05-23T11:01:06;95818.69;;;19.39;99.23
7662;BME280;30314;48.184;11.510;2023-05-23T11:03:56;95816.72;;;19.52;93.33
7662;BME280;30314;48.184;11.510;2023-05-23T11:06:39;95826.50;;;19.60;100.00
7662;BME280;30314;48.184;11.510;2023-05-23T11:09:13;95828.00;;;19.74;96.74
7662;BME280;30314;48.184;11.510;2023-05-23T11:14:30;95816.16;;;19.91;96.55
7662;BME280;30314;48.184;11.510;2023-05-23T11:17:14;95818.19;;;20.13;100.00
7662;BME280;30314;48.184;11.510;2023-05-23T11:19:55;95803.94;;;20.09;96.22
7662;BME280;30314;48.184;11.510;2023-05-23T11:22:27;95804.00;;;20.13;100.00
7662;BME280;30314;48.184;11.510;2023-05-23T11:24:56;95804.63;;;20.06;96.52
7662;BME280;30314;48.184;11.510;2023-05-23T11:27:34;95804.81;;;19.97;96.71
7662;BME280;30314;48.184;11.510;2023-05-23T11:30:08;95798.66;;;19.97;100.00
7662;BME280;30314;48.184;11.510;2023-05-23T11:32:35;95785.91;;;20.26;100.00
7662;BME280;30314;48.184;11.510;2023-05-23T11:35:06;95797.91;;;20.68;94.29
7662;BME280;30314;48.184;11.510;2023-05-23T11:37:33;95799.56;;;20.56;92.70
7662;BME280;30314;48.184;11.510;2023-05-23T11:43:03;95803.31;;;20.16;97.88
7662;BME280;30314;48.184;11.510;2023-05-23T11:45:31;95787.53;;;19.95;92.93
7662;BME280;30314;48.184;11.510;2023-05-23T11:50:32;95795.69;;;20.18;97.65
7662;BME280;30314;48.184;11.510;2023-05-23T11:52:59;95789.09;;;20.32;97.06
7662;BME280;30314;48.184;11.510;2023-05-23T11:55:26;95794.31;;;20.44;93.70
7662;BME280;30314;48.184;11.510;2023-05-23T11:57:55;95794.19;;;20.37;89.69
7662;BME280;30314;48.184;11.510;2023-05-23T12:00:21;95793.19;;;20.25;90.96
7662;BME280;30314;48.184;11.510;2023-05-23T12:02:48;95790.75;;;20.20;88.58
7662;BME280;30314;48.184;11.510;2023-05-23T12:05:15;95785.06;;;20.06;90.70
7662;BME280;30314;48.184;11.510;2023-05-23T12:07:44;95779.66;;;20.02;96.11
7662;BME280;30314;48.184;11.510;2023-05-23T12:10:16;95783.78;;;20.16;96.76
7662;BME280;30314;48.184;11.510;2023-05-23T12:12:43;95785.56;;;20.27;97.38
7662;BME280;30314;48.184;11.510;2023-05-23T12:15:11;95789.13;;;20.51;91.96
7662;BME280;30314;48.184;11.510;2023-05-23T12:17:45;95772.25;;;20.51;90.43
7662;BME280;30314;48.184;11.510;2023-05-23T12:20:12;95785.31;;;20.52;92.39
7662;BME280;30314;48.184;11.510;2023-05-23T12:22:40;95794.09;;;20.69;91.30
7662;BME280;30314;48.184;11.510;2023-05-23T12:25:08;95789.47;;;20.50;90.88
7662;BME280;30314;48.184;11.510;2023-05-23T12:27:38;95796.28;;;20.27;92.61
7662;BME280;30314;48.184;11.510;2023-05-23T12:30:07;95786.56;;;20.03;95.56
7662;BME280;30314;48.184;11.510;2023-05-23T12:32:39;95793.47;;;20.04;91.69
7662;BME280;30314;48.184;11.510;2023-05-23T12:35:08;95793.56;;;20.08;90.28
7662;BME280;30314;48.184;11.510;2023-05-23T12:37:38;95799.00;;;20.11;92.77
7662;BME280;30314;48.184;11.510;2023-05-23T12:40:12;95801.41;;;20.17;90.57
7662;BME280;30314;48.184;11.510;2023-05-23T12:42:48;95798.00;;;20.36;88.90
7662;BME280;30314;48.184;11.510;2023-05-23T12:45:17;95803.19;;;20.28;90.81
7662;BME280;30314;48.184;11.510;2023-05-23T12:47:43;95800.19;;;20.30;95.11
7662;BME280;30314;48.184;11.510;2023-05-23T12:50:10;95795.03;;;20.41;93.04
7662;BME280;30314;48.184;11.510;2023-05-23T12:52:37;95794.31;;;20.24;93.53
7662;BME280;30314;48.184;11.510;2023-05-23T12:55:06;95795.50;;;20.27;94.12
7662;BME280;30314;48.184;11.510;2023-05-23T12:57:34;95795.16;;;20.28;91.87
7662;BME280;30314;48.184;11.510;2023-05-23T13:00:01;95798.16;;;20.27;94.61
7662;BME280;30314;48.184;11.510;2023-05-23T13:02:27;95796.69;;;20.30;91.73
7662;BME280;30314;48.184;11.510;2023-05-23T13:04:54;95788.75;;;20.33;92.99
7662;BME280;30314;48.184;11.510;2023-05-23T13:07:21;95794.09;;;20.33;93.97
7662;BME280;30314;48.184;11.510;2023-05-23T13:09:48;95795.94;;;20.29;95.40
7662;BME280;30314;48.184;11.510;2023-05-23T13:12:15;95799.97;;;20.39;94.66
7662;BME280;30314;48.184;11.510;2023-05-23T13:14:42;95795.19;;;20.48;93.40
7662;BME280;30314;48.184;11.510;2023-05-23T13:17:08;95799.06;;;20.51;93.51
7662;BME280;30314;48.184;11.510;2023-05-23T13:19:35;95793.78;;;20.54;91.15
7662;BME280;30314;48.184;11.510;2023-05-23T13:22:02;95789.88;;;20.52;88.27
7662;BME280;30314;48.184;11.510;2023-05-23T13:24:30;95785.56;;;20.47;82.48
7662;BME280;30314;48.184;11.510;2023-05-23T13:26:56;95784.81;;;20.47;81.21